Flight Track Log - Related Links

Times and Time Zones

All times are in EST time to prevent confusion due to time zone crossing. See the OPT438 flight status page for this flight to view local times or setup timezone preferences in your user account.

Time Position Orientation Groundspeed Altitude Reporting Facility
EST Latitude Longitude Course Direction KTS MPH feet Rate Location/Type
Tue 02:14:40 PM 40.7325 -73.1167 174° South 260 299 5,000  Level Boston Center
Tue 02:15:42 PM 40.7272 -73.0197 94° East 264 304 8,900 2,439 Climbing Boston Center
Tue 02:16:43 PM 40.7081 -72.8761 100° East 345 397 10,000 1,082 Climbing Boston Center
Tue 02:17:44 PM 40.6272 -72.8206 152° Southeast 329 379 11,100 984 Climbing Boston Center
Tue 02:18:45 PM 40.5461 -72.7917 165° South 307 353 12,000 393 Climbing Boston Center
Tue 02:19:46 PM 40.4783 -72.8519 214° Southwest 296 341 11,900  Descending Boston Center
Tue 02:20:47 PM 40.4183 -72.9253 223° Southwest 296 341 12,000 58 Climbing Boston Center
Tue 02:21:29 PM 40.3725 -72.9806 223° Southwest 297 342 12,000  Level New York Center
Tue 02:22:29 PM 40.3189 -73.0467 223° Southwest 297 342 12,000  Level New York Center
Tue 02:23:29 PM 40.2508 -73.1261 222° Southwest 305 351 12,000  Level New York Center
Tue 02:24:29 PM 40.1994 -73.1922 225° Southwest 305 351 12,000  Level New York Center
Tue 02:25:30 PM 40.1331 -73.2714 222° Southwest 305 351 12,000 -450 Level New York Center
Tue 02:26:29 PM 40.0797 -73.3319 221° Southwest 299 344 11,100 -958 Descending New York Center
Tue 02:27:29 PM 40.0239 -73.4028 224° Southwest 277 319 10,100 -1,000 Descending New York Center
Tue 02:28:29 PM 39.9953 -73.4750 243° Southwest 258 297 9,100 -1,050 Descending New York Center
Tue 02:29:29 PM 39.9703 -73.5581 249° West 253 291 8,000 -1,050 Descending New York Center
Tue 02:30:29 PM 39.9539 -73.6386 255° West 241 277 7,000 -1,050 Descending New York Center
Tue 02:31:29 PM 39.9706 -73.7178 285° West 223 257 5,900 -1,100 Descending New York Center
Tue 02:32:29 PM 39.9894 -73.7944 288° West 223 257 4,800 -992 Descending New York Center
Tue 02:33:30 PM 40.0103 -73.8794 288° West 224 258 3,900 -450 Descending New York Center
Tue 02:34:29 PM 40.0350 -73.9619 291° West 237 273 3,900  Level New York Center
Tue 02:35:29 PM 40.0581 -74.0361 292° West 237 273 3,900  Level New York Center
Tue 02:36:30 PM 40.0811 -74.1078 293° West 237 273 3,900  Level New York Center
Tue 02:37:29 PM 40.1039 -74.1822 292° West 231 266 3,900  Level New York Center
Tue 02:38:29 PM 40.1306 -74.2675 292° West 231 266 3,900  Level New York Center
Tue 02:39:29 PM 40.1553 -74.3422 293° West 231 266 3,900  Level New York Center
Tue 02:40:29 PM 40.1781 -74.4194 291° West 231 266 3,900  Level New York Center
Tue 02:41:29 PM 40.1989 -74.4883 292° West 231 266 3,900 50 Level New York Center
Tue 02:42:29 PM 40.2131 -74.5681 283° West 231 266 4,000 50 Climbing New York Center
Tue 02:43:30 PM 40.2186 -74.6472 275° West 226 260 4,000  Level New York Center
Tue 02:44:29 PM 40.2036 -74.7278 256° West 220 253 4,000 -500 Level New York Center
Tue 02:45:30 PM 40.1864 -74.8056 254° West 220 253 3,000 -545 Descending New York Center
Tue 02:46:30 PM 40.1692 -74.8753 252° West 202 232 2,900 -605 Descending New York Center
Tue 02:47:29 PM 40.1361 -74.9303 232° Southwest 196 226 1,800 -1,129 Descending New York Center
Tue 02:48:11 PM 40.1167 -74.9667 235° Southwest 173 199 1,000 -1,143 Descending Philadelphia TRACON
Tue 02:51:00 PM 40.0819 -75.0106 90° East  Level Estimated

Login

Don't have an account? Register now (free) for customized features, flight alerts, and more!